sensor_id;sensor_type;location;lat;lon;timestamp;temperature;humidity
48515;DHT22;34309;47.260;2.796;2024-02-21T00:00:12;19.40;26.80
48515;DHT22;34309;47.260;2.796;2024-02-21T00:02:47;19.40;26.80
48515;DHT22;34309;47.260;2.796;2024-02-21T00:05:21;19.40;26.80
48515;DHT22;34309;47.260;2.796;2024-02-21T00:07:54;19.40;26.90
48515;DHT22;34309;47.260;2.796;2024-02-21T00:10:28;19.40;26.60
48515;DHT22;34309;47.260;2.796;2024-02-21T00:13:04;19.40;26.80
48515;DHT22;34309;47.260;2.796;2024-02-21T00:15:38;19.40;26.80
48515;DHT22;34309;47.260;2.796;2024-02-21T00:18:13;19.40;26.80
48515;DHT22;34309;47.260;2.796;2024-02-21T00:20:46;19.40;26.70
48515;DHT22;34309;47.260;2.796;2024-02-21T00:23:20;19.40;26.70
48515;DHT22;34309;47.260;2.796;2024-02-21T00:25:49;19.40;26.70
48515;DHT22;34309;47.260;2.796;2024-02-21T00:28:22;19.40;26.80
48515;DHT22;34309;47.260;2.796;2024-02-21T00:30:56;19.40;26.80
48515;DHT22;34309;47.260;2.796;2024-02-21T00:33:32;19.40;26.70
48515;DHT22;34309;47.260;2.796;2024-02-21T00:36:06;19.40;26.70
48515;DHT22;34309;47.260;2.796;2024-02-21T00:38:40;19.40;26.70
48515;DHT22;34309;47.260;2.796;2024-02-21T00:41:13;19.40;26.60
48515;DHT22;34309;47.260;2.796;2024-02-21T00:43:47;19.40;26.70
48515;DHT22;34309;47.260;2.796;2024-02-21T00:46:22;19.40;26.60
48515;DHT22;34309;47.260;2.796;2024-02-21T00:48:57;19.40;26.70
48515;DHT22;34309;47.260;2.796;2024-02-21T00:51:31;19.40;26.60
48515;DHT22;34309;47.260;2.796;2024-02-21T00:54:04;19.40;26.60
48515;DHT22;34309;47.260;2.796;2024-02-21T00:56:38;19.40;26.50
48515;DHT22;34309;47.260;2.796;2024-02-21T00:59:12;19.40;26.50
48515;DHT22;34309;47.260;2.796;2024-02-21T01:01:46;19.40;26.60
48515;DHT22;34309;47.260;2.796;2024-02-21T01:04:21;19.40;26.60
48515;DHT22;34309;47.260;2.796;2024-02-21T01:06:56;19.40;26.70
48515;DHT22;34309;47.260;2.796;2024-02-21T01:09:30;19.30;26.60
48515;DHT22;34309;47.260;2.796;2024-02-21T01:12:04;19.30;26.70
48515;DHT22;34309;47.260;2.796;2024-02-21T01:14:38;19.30;26.70
48515;DHT22;34309;47.260;2.796;2024-02-21T01:17:12;19.30;26.70
48515;DHT22;34309;47.260;2.796;2024-02-21T01:19:48;19.30;26.70
48515;DHT22;34309;47.260;2.796;2024-02-21T01:22:21;19.30;26.50
48515;DHT22;34309;47.260;2.796;2024-02-21T01:24:55;19.30;26.70
48515;DHT22;34309;47.260;2.796;2024-02-21T01:27:28;19.30;26.60
48515;DHT22;34309;47.260;2.796;2024-02-21T01:30:01;19.30;26.60
48515;DHT22;34309;47.260;2.796;2024-02-21T01:32:35;19.30;26.50
48515;DHT22;34309;47.260;2.796;2024-02-21T01:35:10;19.30;26.50
48515;DHT22;34309;47.260;2.796;2024-02-21T01:37:43;19.30;26.50
48515;DHT22;34309;47.260;2.796;2024-02-21T01:40:17;19.30;26.50
48515;DHT22;34309;47.260;2.796;2024-02-21T01:42:52;19.30;26.40
48515;DHT22;34309;47.260;2.796;2024-02-21T01:45:27;19.30;26.30
48515;DHT22;34309;47.260;2.796;2024-02-21T01:48:00;19.30;26.40
48515;DHT22;34309;47.260;2.796;2024-02-21T01:50:35;19.30;26.40
48515;DHT22;34309;47.260;2.796;2024-02-21T01:53:10;19.30;26.40
48515;DHT22;34309;47.260;2.796;2024-02-21T01:55:50;19.30;26.40
48515;DHT22;34309;47.260;2.796;2024-02-21T01:58:24;19.20;26.90
48515;DHT22;34309;47.260;2.796;2024-02-21T02:00:57;19.20;26.40
48515;DHT22;34309;47.260;2.796;2024-02-21T02:03:31;19.30;26.30
48515;DHT22;34309;47.260;2.796;2024-02-21T02:06:06;19.30;26.40
48515;DHT22;34309;47.260;2.796;2024-02-21T02:08:40;19.20;26.20
48515;DHT22;34309;47.260;2.796;2024-02-21T02:11:14;19.30;26.30
48515;DHT22;34309;47.260;2.796;2024-02-21T02:13:43;19.20;26.40
48515;DHT22;34309;47.260;2.796;2024-02-21T02:16:16;19.20;26.40
48515;DHT22;34309;47.260;2.796;2024-02-21T02:18:50;19.20;26.40
48515;DHT22;34309;47.260;2.796;2024-02-21T02:21:28;19.20;26.40
48515;DHT22;34309;47.260;2.796;2024-02-21T02:24:04;19.20;26.50
48515;DHT22;34309;47.260;2.796;2024-02-21T02:26:38;19.20;26.40
48515;DHT22;34309;47.260;2.796;2024-02-21T02:29:12;19.20;26.30
48515;DHT22;34309;47.260;2.796;2024-02-21T02:31:45;19.20;26.30
48515;DHT22;34309;47.260;2.796;2024-02-21T02:34:19;19.20;26.30
48515;DHT22;34309;47.260;2.796;2024-02-21T02:36:52;19.20;26.90
48515;DHT22;34309;47.260;2.796;2024-02-21T02:39:28;19.20;26.30
48515;DHT22;34309;47.260;2.796;2024-02-21T02:42:02;19.20;26.50
48515;DHT22;34309;47.260;2.796;2024-02-21T02:44:35;19.20;26.30
48515;DHT22;34309;47.260;2.796;2024-02-21T02:47:09;19.20;26.20
48515;DHT22;34309;47.260;2.796;2024-02-21T02:49:42;19.20;26.20
48515;DHT22;34309;47.260;2.796;2024-02-21T02:52:16;19.20;26.20
48515;DHT22;34309;47.260;2.796;2024-02-21T02:54:52;19.20;26.30
48515;DHT22;34309;47.260;2.796;2024-02-21T02:57:28;19.20;26.20
48515;DHT22;34309;47.260;2.796;2024-02-21T03:00:01;19.20;26.20
48515;DHT22;34309;47.260;2.796;2024-02-21T03:02:36;19.20;26.30
48515;DHT22;34309;47.260;2.796;2024-02-21T03:05:13;19.20;26.20
48515;DHT22;34309;47.260;2.796;2024-02-21T03:07:48;19.20;26.20
48515;DHT22;34309;47.260;2.796;2024-02-21T03:10:23;19.20;26.20
48515;DHT22;34309;47.260;2.796;2024-02-21T03:12:56;19.20;26.10
48515;DHT22;34309;47.260;2.796;2024-02-21T03:15:30;19.10;26.20
48515;DHT22;34309;47.260;2.796;2024-02-21T03:18:04;19.10;26.20
48515;DHT22;34309;47.260;2.796;2024-02-21T03:20:38;19.10;26.10
48515;DHT22;34309;47.260;2.796;2024-02-21T03:23:11;19.10;26.00
48515;DHT22;34309;47.260;2.796;2024-02-21T03:25:46;19.10;26.10
48515;DHT22;34309;47.260;2.796;2024-02-21T03:28:19;19.10;26.00
48515;DHT22;34309;47.260;2.796;2024-02-21T03:30:53;19.10;26.00
48515;DHT22;34309;47.260;2.796;2024-02-21T03:33:26;19.10;26.00
48515;DHT22;34309;47.260;2.796;2024-02-21T03:36:00;19.10;26.00
48515;DHT22;34309;47.260;2.796;2024-02-21T03:38:33;19.10;26.00
48515;DHT22;34309;47.260;2.796;2024-02-21T03:41:09;19.10;26.00
48515;DHT22;34309;47.260;2.796;2024-02-21T03:43:43;19.10;26.00
48515;DHT22;34309;47.260;2.796;2024-02-21T03:46:16;19.10;26.00
48515;DHT22;34309;47.260;2.796;2024-02-21T03:48:49;19.10;26.10
48515;DHT22;34309;47.260;2.796;2024-02-21T03:51:23;19.10;26.10
48515;DHT22;34309;47.260;2.796;2024-02-21T03:53:56;19.10;26.10
48515;DHT22;34309;47.260;2.796;2024-02-21T03:56:31;19.10;26.10
48515;DHT22;34309;47.260;2.796;2024-02-21T03:59:05;19.10;26.00
48515;DHT22;34309;47.260;2.796;2024-02-21T04:01:38;19.00;26.00
48515;DHT22;34309;47.260;2.796;2024-02-21T04:04:12;19.00;26.10
48515;DHT22;34309;47.260;2.796;2024-02-21T04:06:48;19.00;26.00
48515;DHT22;34309;47.260;2.796;2024-02-21T04:09:23;19.00;26.00
48515;DHT22;34309;47.260;2.796;2024-02-21T04:11:58;19.00;26.00
48515;DHT22;34309;47.260;2.796;2024-02-21T04:14:31;19.00;26.20
48515;DHT22;34309;47.260;2.796;2024-02-21T04:17:05;19.00;26.00
48515;DHT22;34309;47.260;2.796;2024-02-21T04:19:39;19.00;26.00
48515;DHT22;34309;47.260;2.796;2024-02-21T04:22:13;19.00;26.10
48515;DHT22;34309;47.260;2.796;2024-02-21T04:24:47;19.00;26.10
48515;DHT22;34309;47.260;2.796;2024-02-21T04:27:21;19.00;25.90
48515;DHT22;34309;47.260;2.796;2024-02-21T04:29:49;19.00;26.00
48515;DHT22;34309;47.260;2.796;2024-02-21T04:32:23;19.00;26.00
48515;DHT22;34309;47.260;2.796;2024-02-21T04:34:59;19.00;25.90
48515;DHT22;34309;47.260;2.796;2024-02-21T04:37:32;18.90;25.90
48515;DHT22;34309;47.260;2.796;2024-02-21T04:40:06;18.90;25.80
48515;DHT22;34309;47.260;2.796;2024-02-21T04:42:42;18.90;25.90
48515;DHT22;34309;47.260;2.796;2024-02-21T04:45:15;18.90;25.80
48515;DHT22;34309;47.260;2.796;2024-02-21T04:47:49;18.90;25.80
48515;DHT22;34309;47.260;2.796;2024-02-21T04:50:22;18.90;25.90
48515;DHT22;34309;47.260;2.796;2024-02-21T04:52:56;18.90;25.90
48515;DHT22;34309;47.260;2.796;2024-02-21T04:55:29;18.90;26.00
48515;DHT22;34309;47.260;2.796;2024-02-21T04:58:04;18.90;25.90
48515;DHT22;34309;47.260;2.796;2024-02-21T05:00:37;18.80;25.70
48515;DHT22;34309;47.260;2.796;2024-02-21T05:03:11;18.80;25.70
48515;DHT22;34309;47.260;2.796;2024-02-21T05:05:39;18.80;25.70
48515;DHT22;34309;47.260;2.796;2024-02-21T05:08:12;18.80;25.70
48515;DHT22;34309;47.260;2.796;2024-02-21T05:10:46;18.80;25.80
48515;DHT22;34309;47.260;2.796;2024-02-21T05:13:21;18.80;25.70
48515;DHT22;34309;47.260;2.796;2024-02-21T05:15:55;18.80;25.90
48515;DHT22;34309;47.260;2.796;2024-02-21T05:18:28;18.80;25.90
48515;DHT22;34309;47.260;2.796;2024-02-21T05:21:01;18.80;25.90
48515;DHT22;34309;47.260;2.796;2024-02-21T05:23:35;18.80;25.90
48515;DHT22;34309;47.260;2.796;2024-02-21T05:26:09;18.80;25.70
48515;DHT22;34309;47.260;2.796;2024-02-21T05:28:44;18.80;25.80
48515;DHT22;34309;47.260;2.796;2024-02-21T05:31:18;18.80;25.80
48515;DHT22;34309;47.260;2.796;2024-02-21T05:33:53;18.80;25.80
48515;DHT22;34309;47.260;2.796;2024-02-21T05:36:26;18.80;25.70
48515;DHT22;34309;47.260;2.796;2024-02-21T05:39:00;18.80;25.80
48515;DHT22;34309;47.260;2.796;2024-02-21T05:41:33;18.70;25.60
48515;DHT22;34309;47.260;2.796;2024-02-21T05:44:08;18.70;25.70
48515;DHT22;34309;47.260;2.796;2024-02-21T05:46:41;18.70;25.70
48515;DHT22;34309;47.260;2.796;2024-02-21T05:49:14;18.70;25.70
48515;DHT22;34309;47.260;2.796;2024-02-21T05:51:47;18.70;25.70
48515;DHT22;34309;47.260;2.796;2024-02-21T05:54:21;18.70;25.60
48515;DHT22;34309;47.260;2.796;2024-02-21T05:56:55;18.70;25.50
48515;DHT22;34309;47.260;2.796;2024-02-21T05:59:30;18.70;25.60
48515;DHT22;34309;47.260;2.796;2024-02-21T06:02:04;18.70;25.70
48515;DHT22;34309;47.260;2.796;2024-02-21T06:04:38;18.70;25.60
48515;DHT22;34309;47.260;2.796;2024-02-21T06:07:12;18.70;25.60
48515;DHT22;34309;47.260;2.796;2024-02-21T06:09:45;18.70;25.50
48515;DHT22;34309;47.260;2.796;2024-02-21T06:12:19;18.70;25.50
48515;DHT22;34309;47.260;2.796;2024-02-21T06:14:55;18.70;25.50
48515;DHT22;34309;47.260;2.796;2024-02-21T06:17:28;18.70;25.50
48515;DHT22;34309;47.260;2.796;2024-02-21T06:20:02;18.70;25.60
48515;DHT22;34309;47.260;2.796;2024-02-21T06:22:36;18.70;25.50
48515;DHT22;34309;47.260;2.796;2024-02-21T06:25:09;18.70;25.50
48515;DHT22;34309;47.260;2.796;2024-02-21T06:27:43;18.70;25.40
48515;DHT22;34309;47.260;2.796;2024-02-21T06:30:18;18.70;25.40
48515;DHT22;34309;47.260;2.796;2024-02-21T06:32:51;18.70;25.40
48515;DHT22;34309;47.260;2.796;2024-02-21T06:35:27;18.60;25.50
48515;DHT22;34309;47.260;2.796;2024-02-21T06:38:01;18.60;25.50
48515;DHT22;34309;47.260;2.796;2024-02-21T06:40:35;18.60;25.40
48515;DHT22;34309;47.260;2.796;2024-02-21T06:43:12;18.60;25.40
48515;DHT22;34309;47.260;2.796;2024-02-21T06:45:47;18.60;25.50
48515;DHT22;34309;47.260;2.796;2024-02-21T06:48:23;18.60;25.50
48515;DHT22;34309;47.260;2.796;2024-02-21T06:50:56;18.60;26.00
48515;DHT22;34309;47.260;2.796;2024-02-21T06:53:30;18.60;25.50
48515;DHT22;34309;47.260;2.796;2024-02-21T06:56:04;18.60;25.50
48515;DHT22;34309;47.260;2.796;2024-02-21T06:58:38;18.60;25.60
48515;DHT22;34309;47.260;2.796;2024-02-21T07:01:15;18.60;25.40
48515;DHT22;34309;47.260;2.796;2024-02-21T07:03:48;18.60;25.40
48515;DHT22;34309;47.260;2.796;2024-02-21T07:06:22;18.60;25.60
48515;DHT22;34309;47.260;2.796;2024-02-21T07:08:55;18.60;25.50
48515;DHT22;34309;47.260;2.796;2024-02-21T07:11:29;18.50;25.40
48515;DHT22;34309;47.260;2.796;2024-02-21T07:14:04;18.50;25.40
48515;DHT22;34309;47.260;2.796;2024-02-21T07:16:39;18.50;25.40
48515;DHT22;34309;47.260;2.796;2024-02-21T07:19:13;18.50;25.50
48515;DHT22;34309;47.260;2.796;2024-02-21T07:21:46;18.50;25.40
48515;DHT22;34309;47.260;2.796;2024-02-21T07:24:20;18.50;25.40
48515;DHT22;34309;47.260;2.796;2024-02-21T07:26:49;18.50;25.40
48515;DHT22;34309;47.260;2.796;2024-02-21T07:29:23;18.50;25.30
48515;DHT22;34309;47.260;2.796;2024-02-21T07:31:58;18.50;25.40
48515;DHT22;34309;47.260;2.796;2024-02-21T07:34:32;18.50;25.50
48515;DHT22;34309;47.260;2.796;2024-02-21T07:37:05;18.50;25.30
48515;DHT22;34309;47.260;2.796;2024-02-21T07:39:40;18.50;25.30
48515;DHT22;34309;47.260;2.796;2024-02-21T07:42:14;18.50;25.40
48515;DHT22;34309;47.260;2.796;2024-02-21T07:44:47;18.50;25.40
48515;DHT22;34309;47.260;2.796;2024-02-21T07:47:22;18.50;25.30
48515;DHT22;34309;47.260;2.796;2024-02-21T07:49:56;18.50;25.90
48515;DHT22;34309;47.260;2.796;2024-02-21T07:52:30;18.50;25.40
48515;DHT22;34309;47.260;2.796;2024-02-21T07:55:03;18.40;25.20
48515;DHT22;34309;47.260;2.796;2024-02-21T07:57:37;18.40;25.40
48515;DHT22;34309;47.260;2.796;2024-02-21T08:00:11;18.40;25.30
48515;DHT22;34309;47.260;2.796;2024-02-21T08:02:52;18.40;25.40
48515;DHT22;34309;47.260;2.796;2024-02-21T08:05:26;18.40;25.40
48515;DHT22;34309;47.260;2.796;2024-02-21T08:08:02;18.40;25.30
48515;DHT22;34309;47.260;2.796;2024-02-21T08:10:35;18.40;25.30
48515;DHT22;34309;47.260;2.796;2024-02-21T08:13:11;18.50;25.40
48515;DHT22;34309;47.260;2.796;2024-02-21T08:15:45;18.40;25.30
48515;DHT22;34309;47.260;2.796;2024-02-21T08:18:20;18.40;25.30
48515;DHT22;34309;47.260;2.796;2024-02-21T08:20:54;18.40;25.20
48515;DHT22;34309;47.260;2.796;2024-02-21T08:23:28;18.40;25.20
48515;DHT22;34309;47.260;2.796;2024-02-21T08:26:03;18.40;25.20
48515;DHT22;34309;47.260;2.796;2024-02-21T08:28:39;18.40;25.20
48515;DHT22;34309;47.260;2.796;2024-02-21T08:31:20;18.40;25.30
48515;DHT22;34309;47.260;2.796;2024-02-21T08:33:57;18.40;25.20
48515;DHT22;34309;47.260;2.796;2024-02-21T08:36:35;18.40;25.30
48515;DHT22;34309;47.260;2.796;2024-02-21T08:39:12;18.40;25.30
48515;DHT22;34309;47.260;2.796;2024-02-21T08:41:48;18.40;25.50
48515;DHT22;34309;47.260;2.796;2024-02-21T08:44:23;18.40;25.40
48515;DHT22;34309;47.260;2.796;2024-02-21T08:46:58;18.40;25.60
48515;DHT22;34309;47.260;2.796;2024-02-21T08:49:33;18.40;25.50
48515;DHT22;34309;47.260;2.796;2024-02-21T08:52:07;18.40;25.40
48515;DHT22;34309;47.260;2.796;2024-02-21T08:54:40;18.40;25.70
48515;DHT22;34309;47.260;2.796;2024-02-21T08:57:15;18.40;25.60
48515;DHT22;34309;47.260;2.796;2024-02-21T08:59:51;18.40;25.70
48515;DHT22;34309;47.260;2.796;2024-02-21T09:02:24;18.30;25.70
48515;DHT22;34309;47.260;2.796;2024-02-21T09:04:59;18.30;25.70
48515;DHT22;34309;47.260;2.796;2024-02-21T09:07:33;18.30;25.70
48515;DHT22;34309;47.260;2.796;2024-02-21T09:10:08;18.40;25.80
48515;DHT22;34309;47.260;2.796;2024-02-21T09:12:45;18.40;25.80
48515;DHT22;34309;47.260;2.796;2024-02-21T09:15:19;18.30;25.80
48515;DHT22;34309;47.260;2.796;2024-02-21T09:17:53;18.30;26.00
48515;DHT22;34309;47.260;2.796;2024-02-21T09:20:28;18.30;26.00
48515;DHT22;34309;47.260;2.796;2024-02-21T09:23:03;18.30;25.90
48515;DHT22;34309;47.260;2.796;2024-02-21T09:25:37;18.30;25.90
48515;DHT22;34309;47.260;2.796;2024-02-21T09:28:12;18.40;26.00
48515;DHT22;34309;47.260;2.796;2024-02-21T09:30:46;18.30;26.00
48515;DHT22;34309;47.260;2.796;2024-02-21T09:33:19;18.30;26.00
48515;DHT22;34309;47.260;2.796;2024-02-21T09:35:54;18.30;26.00
48515;DHT22;34309;47.260;2.796;2024-02-21T09:38:28;18.30;26.10
48515;DHT22;34309;47.260;2.796;2024-02-21T09:41:11;18.30;26.00
48515;DHT22;34309;47.260;2.796;2024-02-21T09:43:50;18.30;25.90
48515;DHT22;34309;47.260;2.796;2024-02-21T09:46:35;18.30;26.00
48515;DHT22;34309;47.260;2.796;2024-02-21T09:49:20;18.30;25.90
48515;DHT22;34309;47.260;2.796;2024-02-21T09:51:57;18.30;26.00
48515;DHT22;34309;47.260;2.796;2024-02-21T09:54:33;18.30;26.10
48515;DHT22;34309;47.260;2.796;2024-02-21T09:57:08;18.30;26.00
48515;DHT22;34309;47.260;2.796;2024-02-21T09:59:42;18.30;26.20
48515;DHT22;34309;47.260;2.796;2024-02-21T10:02:16;18.30;26.10
48515;DHT22;34309;47.260;2.796;2024-02-21T10:04:50;18.30;26.10
48515;DHT22;34309;47.260;2.796;2024-02-21T10:07:25;18.30;26.10
48515;DHT22;34309;47.260;2.796;2024-02-21T10:10:02;18.30;26.10
48515;DHT22;34309;47.260;2.796;2024-02-21T10:12:37;18.30;26.10
48515;DHT22;34309;47.260;2.796;2024-02-21T10:15:21;18.30;26.10
48515;DHT22;34309;47.260;2.796;2024-02-21T10:18:00;18.30;26.20
48515;DHT22;34309;47.260;2.796;2024-02-21T10:20:35;18.30;26.30
48515;DHT22;34309;47.260;2.796;2024-02-21T10:23:11;18.30;26.20
48515;DHT22;34309;47.260;2.796;2024-02-21T10:25:45;18.30;26.20
48515;DHT22;34309;47.260;2.796;2024-02-21T10:28:21;18.30;26.20
48515;DHT22;34309;47.260;2.796;2024-02-21T10:30:56;18.30;26.20
48515;DHT22;34309;47.260;2.796;2024-02-21T10:33:29;18.30;26.30
48515;DHT22;34309;47.260;2.796;2024-02-21T10:36:08;18.30;26.20
48515;DHT22;34309;47.260;2.796;2024-02-21T10:38:43;18.30;26.10
48515;DHT22;34309;47.260;2.796;2024-02-21T10:41:14;18.30;26.00
48515;DHT22;34309;47.260;2.796;2024-02-21T10:43:50;18.30;26.10
48515;DHT22;34309;47.260;2.796;2024-02-21T10:46:25;18.30;26.00
48515;DHT22;34309;47.260;2.796;2024-02-21T10:49:08;18.30;26.10
48515;DHT22;34309;47.260;2.796;2024-02-21T10:51:44;18.30;26.30
48515;DHT22;34309;47.260;2.796;2024-02-21T10:54:37;18.30;26.20
48515;DHT22;34309;47.260;2.796;2024-02-21T10:57:13;18.30;26.20
48515;DHT22;34309;47.260;2.796;2024-02-21T10:59:48;18.30;26.20
48515;DHT22;34309;47.260;2.796;2024-02-21T11:02:22;18.30;26.20
48515;DHT22;34309;47.260;2.796;2024-02-21T11:04:57;18.30;26.20
48515;DHT22;34309;47.260;2.796;2024-02-21T11:07:31;18.30;26.20
48515;DHT22;34309;47.260;2.796;2024-02-21T11:10:20;18.30;26.10
48515;DHT22;34309;47.260;2.796;2024-02-21T11:13:06;18.30;26.10
48515;DHT22;34309;47.260;2.796;2024-02-21T11:15:40;18.30;26.00
48515;DHT22;34309;47.260;2.796;2024-02-21T11:18:23;18.30;26.10
48515;DHT22;34309;47.260;2.796;2024-02-21T11:20:57;18.30;26.20
48515;DHT22;34309;47.260;2.796;2024-02-21T11:23:31;18.30;26.10
48515;DHT22;34309;47.260;2.796;2024-02-21T11:26:08;18.30;26.10
48515;DHT22;34309;47.260;2.796;2024-02-21T11:28:42;18.30;26.10
48515;DHT22;34309;47.260;2.796;2024-02-21T11:31:16;18.30;26.10
48515;DHT22;34309;47.260;2.796;2024-02-21T11:33:51;18.30;26.20
48515;DHT22;34309;47.260;2.796;2024-02-21T11:36:25;18.30;26.20
48515;DHT22;34309;47.260;2.796;2024-02-21T11:39:03;18.30;26.20
48515;DHT22;34309;47.260;2.796;2024-02-21T11:41:39;18.20;26.20
48515;DHT22;34309;47.260;2.796;2024-02-21T11:44:13;18.30;26.20
48515;DHT22;34309;47.260;2.796;2024-02-21T11:46:46;18.30;26.30
48515;DHT22;34309;47.260;2.796;2024-02-21T11:49:22;18.30;26.40
48515;DHT22;34309;47.260;2.796;2024-02-21T11:52:01;18.20;26.30
48515;DHT22;34309;47.260;2.796;2024-02-21T11:54:36;18.20;26.20
48515;DHT22;34309;47.260;2.796;2024-02-21T11:57:11;18.30;26.40
48515;DHT22;34309;47.260;2.796;2024-02-21T11:59:45;18.20;26.30
48515;DHT22;34309;47.260;2.796;2024-02-21T12:02:20;18.20;26.20
48515;DHT22;34309;47.260;2.796;2024-02-21T12:04:53;18.30;26.30
48515;DHT22;34309;47.260;2.796;2024-02-21T12:07:28;18.30;26.30
48515;DHT22;34309;47.260;2.796;2024-02-21T12:10:01;18.30;26.30
48515;DHT22;34309;47.260;2.796;2024-02-21T12:12:37;18.20;26.30
48515;DHT22;34309;47.260;2.796;2024-02-21T12:15:12;18.20;26.30
48515;DHT22;34309;47.260;2.796;2024-02-21T12:17:47;18.30;26.40
48515;DHT22;34309;47.260;2.796;2024-02-21T12:20:20;18.30;26.30
48515;DHT22;34309;47.260;2.796;2024-02-21T12:22:55;18.30;26.10
48515;DHT22;34309;47.260;2.796;2024-02-21T12:25:30;18.30;26.20
48515;DHT22;34309;47.260;2.796;2024-02-21T12:28:00;18.30;26.20
48515;DHT22;34309;47.260;2.796;2024-02-21T12:30:37;18.30;26.20
48515;DHT22;34309;47.260;2.796;2024-02-21T12:33:12;18.30;26.20
48515;DHT22;34309;47.260;2.796;2024-02-21T12:35:46;18.30;26.40
48515;DHT22;34309;47.260;2.796;2024-02-21T12:38:16;18.30;26.50
48515;DHT22;34309;47.260;2.796;2024-02-21T12:40:52;18.30;26.20
48515;DHT22;34309;47.260;2.796;2024-02-21T12:43:22;18.30;26.30
48515;DHT22;34309;47.260;2.796;2024-02-21T12:45:56;18.30;26.10
48515;DHT22;34309;47.260;2.796;2024-02-21T12:48:29;18.30;26.20
48515;DHT22;34309;47.260;2.796;2024-02-21T12:51:03;18.30;26.30
48515;DHT22;34309;47.260;2.796;2024-02-21T12:53:38;18.30;26.50
48515;DHT22;34309;47.260;2.796;2024-02-21T12:56:11;18.30;26.50
48515;DHT22;34309;47.260;2.796;2024-02-21T12:58:47;18.30;26.10
48515;DHT22;34309;47.260;2.796;2024-02-21T13:01:21;18.30;26.20
48515;DHT22;34309;47.260;2.796;2024-02-21T13:03:55;18.30;26.10
48515;DHT22;34309;47.260;2.796;2024-02-21T13:06:30;18.30;26.60
48515;DHT22;34309;47.260;2.796;2024-02-21T13:09:04;18.30;26.00
48515;DHT22;34309;47.260;2.796;2024-02-21T13:11:40;18.30;26.20
48515;DHT22;34309;47.260;2.796;2024-02-21T13:14:16;18.30;26.00
48515;DHT22;34309;47.260;2.796;2024-02-21T13:16:50;18.30;26.10
48515;DHT22;34309;47.260;2.796;2024-02-21T13:19:23;18.30;26.10
48515;DHT22;34309;47.260;2.796;2024-02-21T13:21:57;18.30;26.20
48515;DHT22;34309;47.260;2.796;2024-02-21T13:24:31;18.30;26.40
48515;DHT22;34309;47.260;2.796;2024-02-21T13:27:05;18.30;26.40
48515;DHT22;34309;47.260;2.796;2024-02-21T13:29:40;18.30;26.20
48515;DHT22;34309;47.260;2.796;2024-02-21T13:32:15;18.30;26.00
48515;DHT22;34309;47.260;2.796;2024-02-21T13:34:49;18.30;26.20
48515;DHT22;34309;47.260;2.796;2024-02-21T13:37:24;18.30;26.20
48515;DHT22;34309;47.260;2.796;2024-02-21T13:40:00;18.30;26.20
48515;DHT22;34309;47.260;2.796;2024-02-21T13:42:35;18.30;26.20
48515;DHT22;34309;47.260;2.796;2024-02-21T13:45:10;18.30;26.00
48515;DHT22;34309;47.260;2.796;2024-02-21T13:47:43;18.30;26.00
48515;DHT22;34309;47.260;2.796;2024-02-21T13:50:18;18.30;26.00
48515;DHT22;34309;47.260;2.796;2024-02-21T13:52:52;18.30;26.00
48515;DHT22;34309;47.260;2.796;2024-02-21T13:55:26;18.30;26.10
48515;DHT22;34309;47.260;2.796;2024-02-21T13:58:00;18.30;26.40
48515;DHT22;34309;47.260;2.796;2024-02-21T14:00:36;18.30;26.10
48515;DHT22;34309;47.260;2.796;2024-02-21T14:03:10;18.30;26.10
48515;DHT22;34309;47.260;2.796;2024-02-21T14:05:44;18.30;26.20
48515;DHT22;34309;47.260;2.796;2024-02-21T14:08:20;18.30;26.50
48515;DHT22;34309;47.260;2.796;2024-02-21T14:10:54;18.30;26.20
48515;DHT22;34309;47.260;2.796;2024-02-21T14:13:31;18.30;26.10
48515;DHT22;34309;47.260;2.796;2024-02-21T14:16:11;18.30;26.10
48515;DHT22;34309;47.260;2.796;2024-02-21T14:18:45;18.30;26.30
48515;DHT22;34309;47.260;2.796;2024-02-21T14:21:18;18.30;26.30
48515;DHT22;34309;47.260;2.796;2024-02-21T14:23:52;18.30;25.90
48515;DHT22;34309;47.260;2.796;2024-02-21T14:26:26;18.30;26.10
48515;DHT22;34309;47.260;2.796;2024-02-21T14:29:00;18.30;26.10
48515;DHT22;34309;47.260;2.796;2024-02-21T14:31:37;18.30;26.00
48515;DHT22;34309;47.260;2.796;2024-02-21T14:34:10;18.30;26.00
48515;DHT22;34309;47.260;2.796;2024-02-21T14:36:46;18.30;26.10
48515;DHT22;34309;47.260;2.796;2024-02-21T14:39:20;18.30;26.10
48515;DHT22;34309;47.260;2.796;2024-02-21T14:41:54;18.30;26.10
48515;DHT22;34309;47.260;2.796;2024-02-21T14:44:28;18.30;26.10
48515;DHT22;34309;47.260;2.796;2024-02-21T14:47:03;18.30;26.00
48515;DHT22;34309;47.260;2.796;2024-02-21T14:49:32;18.30;26.20
48515;DHT22;34309;47.260;2.796;2024-02-21T14:52:06;18.30;26.00
48515;DHT22;34309;47.260;2.796;2024-02-21T14:54:40;18.30;26.20
48515;DHT22;34309;47.260;2.796;2024-02-21T14:57:19;18.30;26.00
48515;DHT22;34309;47.260;2.796;2024-02-21T14:59:53;18.30;26.20
48515;DHT22;34309;47.260;2.796;2024-02-21T15:02:30;18.30;26.10
48515;DHT22;34309;47.260;2.796;2024-02-21T15:05:04;18.30;26.00
48515;DHT22;34309;47.260;2.796;2024-02-21T15:07:39;18.30;26.10
48515;DHT22;34309;47.260;2.796;2024-02-21T15:10:13;18.30;26.10
48515;DHT22;34309;47.260;2.796;2024-02-21T15:12:47;18.30;26.20
48515;DHT22;34309;47.260;2.796;2024-02-21T15:15:21;18.30;26.20
48515;DHT22;34309;47.260;2.796;2024-02-21T15:17:56;18.30;26.20
48515;DHT22;34309;47.260;2.796;2024-02-21T15:20:30;18.30;26.30
48515;DHT22;34309;47.260;2.796;2024-02-21T15:23:04;18.30;26.30
48515;DHT22;34309;47.260;2.796;2024-02-21T15:25:38;18.30;26.20
48515;DHT22;34309;47.260;2.796;2024-02-21T15:28:13;18.30;26.30
48515;DHT22;34309;47.260;2.796;2024-02-21T15:30:47;18.20;26.30
48515;DHT22;34309;47.260;2.796;2024-02-21T15:33:22;18.20;26.30
48515;DHT22;34309;47.260;2.796;2024-02-21T15:35:56;18.30;26.20
48515;DHT22;34309;47.260;2.796;2024-02-21T15:38:30;18.30;26.30
48515;DHT22;34309;47.260;2.796;2024-02-21T15:41:04;18.30;26.30
48515;DHT22;34309;47.260;2.796;2024-02-21T15:43:38;18.20;26.20
48515;DHT22;34309;47.260;2.796;2024-02-21T15:46:11;18.20;26.30
48515;DHT22;34309;47.260;2.796;2024-02-21T15:48:47;18.30;26.20
48515;DHT22;34309;47.260;2.796;2024-02-21T15:51:24;18.20;26.20
48515;DHT22;34309;47.260;2.796;2024-02-21T15:53:58;18.20;26.20
48515;DHT22;34309;47.260;2.796;2024-02-21T15:56:32;18.30;26.20
48515;DHT22;34309;47.260;2.796;2024-02-21T15:59:06;18.20;26.20
48515;DHT22;34309;47.260;2.796;2024-02-21T16:01:51;18.20;26.20
48515;DHT22;34309;47.260;2.796;2024-02-21T16:04:27;18.20;26.20
48515;DHT22;34309;47.260;2.796;2024-02-21T16:07:02;18.20;26.20
48515;DHT22;34309;47.260;2.796;2024-02-21T16:09:36;18.20;26.20
48515;DHT22;34309;47.260;2.796;2024-02-21T16:12:14;18.20;26.70
48515;DHT22;34309;47.260;2.796;2024-02-21T16:14:48;18.20;26.30